sensor_id;sensor_type;location;lat;lon;timestamp;pressure;altitude;pressure_sealevel;temperature;humidity
46756;BME280;32506;52.826;-1.192;2023-02-21T00:01:14;101352.78;;;11.77;57.89
46756;BME280;32506;52.826;-1.192;2023-02-21T00:03:59;101352.19;;;11.75;57.81
46756;BME280;32506;52.826;-1.192;2023-02-21T00:06:43;101357.91;;;11.72;58.10
46756;BME280;32506;52.826;-1.192;2023-02-21T00:09:28;101348.22;;;11.71;58.21
46756;BME280;32506;52.826;-1.192;2023-02-21T00:12:11;101343.06;;;11.69;58.26
46756;BME280;32506;52.826;-1.192;2023-02-21T00:14:56;101343.28;;;11.68;58.03
46756;BME280;32506;52.826;-1.192;2023-02-21T00:17:39;101341.63;;;11.67;58.01
46756;BME280;32506;52.826;-1.192;2023-02-21T00:20:24;101337.31;;;11.66;58.27
46756;BME280;32506;52.826;-1.192;2023-02-21T00:23:09;101328.66;;;11.64;58.01
46756;BME280;32506;52.826;-1.192;2023-02-21T00:25:53;101329.66;;;11.63;58.11
46756;BME280;32506;52.826;-1.192;2023-02-21T00:28:36;101325.38;;;11.62;58.20
46756;BME280;32506;52.826;-1.192;2023-02-21T00:31:20;101325.53;;;11.60;58.48
46756;BME280;32506;52.826;-1.192;2023-02-21T00:34:04;101323.06;;;11.58;58.62
46756;BME280;32506;52.826;-1.192;2023-02-21T00:36:48;101323.28;;;11.57;58.58
46756;BME280;32506;52.826;-1.192;2023-02-21T00:39:32;101318.13;;;11.55;58.44
46756;BME280;32506;52.826;-1.192;2023-02-21T00:42:16;101321.81;;;11.54;58.48
46756;BME280;32506;52.826;-1.192;2023-02-21T00:45:00;101317.50;;;11.53;58.32
46756;BME280;32506;52.826;-1.192;2023-02-21T00:47:44;101313.38;;;11.51;58.66
46756;BME280;32506;52.826;-1.192;2023-02-21T00:50:28;101309.06;;;11.50;58.79
46756;BME280;32506;52.826;-1.192;2023-02-21T00:53:12;101304.94;;;11.47;58.66
46756;BME280;32506;52.826;-1.192;2023-02-21T00:55:56;101304.09;;;11.47;58.47
46756;BME280;32506;52.826;-1.192;2023-02-21T00:58:40;101310.47;;;11.46;58.87
46756;BME280;32506;52.826;-1.192;2023-02-21T01:01:23;101305.34;;;11.44;58.97
46756;BME280;32506;52.826;-1.192;2023-02-21T01:04:07;101302.03;;;11.42;58.49
46756;BME280;32506;52.826;-1.192;2023-02-21T01:06:51;101302.22;;;11.40;58.59
46756;BME280;32506;52.826;-1.192;2023-02-21T01:09:35;101302.22;;;11.40;58.59
46756;BME280;32506;52.826;-1.192;2023-02-21T01:12:19;101299.75;;;11.39;58.67
46756;BME280;32506;52.826;-1.192;2023-02-21T01:15:03;101292.75;;;11.38;58.95
46756;BME280;32506;52.826;-1.192;2023-02-21T01:17:47;101296.44;;;11.37;58.87
46756;BME280;32506;52.826;-1.192;2023-02-21T01:20:31;101292.31;;;11.34;58.92
46756;BME280;32506;52.826;-1.192;2023-02-21T01:23:15;101286.97;;;11.34;58.68
46756;BME280;32506;52.826;-1.192;2023-02-21T01:25:59;101289.84;;;11.33;58.82
46756;BME280;32506;52.826;-1.192;2023-02-21T01:28:43;101280.16;;;11.32;58.78
46756;BME280;32506;52.826;-1.192;2023-02-21T01:31:27;101280.34;;;11.30;59.14
46756;BME280;32506;52.826;-1.192;2023-02-21T01:34:11;101291.06;;;11.30;58.90
46756;BME280;32506;52.826;-1.192;2023-02-21T01:36:55;101286.94;;;11.28;59.11
46756;BME280;32506;52.826;-1.192;2023-02-21T01:39:39;101284.25;;;11.28;58.96
46756;BME280;32506;52.826;-1.192;2023-02-21T01:42:23;101287.13;;;11.26;59.27
46756;BME280;32506;52.826;-1.192;2023-02-21T01:45:44;101287.13;;;11.26;59.30
46756;BME280;32506;52.826;-1.192;2023-02-21T01:48:30;101294.56;;;11.24;59.10
46756;BME280;32506;52.826;-1.192;2023-02-21T01:51:17;101279.72;;;11.21;58.94
46756;BME280;32506;52.826;-1.192;2023-02-21T01:54:03;101291.25;;;11.22;59.11
46756;BME280;32506;52.826;-1.192;2023-02-21T01:56:48;101282.56;;;11.20;58.89
46756;BME280;32506;52.826;-1.192;2023-02-21T01:59:32;101279.09;;;11.19;59.26
46756;BME280;32506;52.826;-1.192;2023-02-21T02:02:22;101272.06;;;11.18;59.34
46756;BME280;32506;52.826;-1.192;2023-02-21T02:05:09;101279.09;;;11.19;59.37
46756;BME280;32506;52.826;-1.192;2023-02-21T02:07:54;101278.47;;;11.17;59.27
46756;BME280;32506;52.826;-1.192;2023-02-21T02:10:40;101277.84;;;11.15;58.98
46756;BME280;32506;52.826;-1.192;2023-02-21T02:16:26;101281.53;;;11.14;59.04
46756;BME280;32506;52.826;-1.192;2023-02-21T02:24:51;101272.25;;;11.10;59.02
46756;BME280;32506;52.826;-1.192;2023-02-21T02:27:41;101268.56;;;11.11;59.02
46756;BME280;32506;52.826;-1.192;2023-02-21T02:44:25;101259.88;;;11.02;59.17
46756;BME280;32506;52.826;-1.192;2023-02-21T02:46:55;101265.22;;;11.02;59.37
46756;BME280;32506;52.826;-1.192;2023-02-21T02:49:27;101267.06;;;11.02;58.95
46756;BME280;32506;52.826;-1.192;2023-02-21T02:51:53;101260.91;;;11.01;59.25
46756;BME280;32506;52.826;-1.192;2023-02-21T02:54:19;101260.06;;;11.01;59.18
46756;BME280;32506;52.826;-1.192;2023-02-21T02:56:45;101258.44;;;11.00;59.17
46756;BME280;32506;52.826;-1.192;2023-02-21T02:59:15;101257.59;;;10.99;59.23
46756;BME280;32506;52.826;-1.192;2023-02-21T03:14:49;101261.69;;;10.95;59.44
46756;BME280;32506;52.826;-1.192;2023-02-21T03:17:17;101263.56;;;10.95;59.31
46756;BME280;32506;52.826;-1.192;2023-02-21T03:19:46;101264.78;;;10.92;59.39
46756;BME280;32506;52.826;-1.192;2023-02-21T03:22:16;101262.09;;;10.92;59.42
46756;BME280;32506;52.826;-1.192;2023-02-21T03:24:44;101259.63;;;10.90;59.19
46756;BME280;32506;52.826;-1.192;2023-02-21T03:27:12;101262.31;;;10.90;59.13
46756;BME280;32506;52.826;-1.192;2023-02-21T03:29:39;101259.00;;;10.88;59.35
46756;BME280;32506;52.826;-1.192;2023-02-21T03:32:09;101259.00;;;10.88;59.13
46756;BME280;32506;52.826;-1.192;2023-02-21T03:34:38;101259.00;;;10.88;59.11
46756;BME280;32506;52.826;-1.192;2023-02-21T03:37:09;101260.84;;;10.88;59.10
46756;BME280;32506;52.826;-1.192;2023-02-21T03:39:35;101261.88;;;10.87;59.31
46756;BME280;32506;52.826;-1.192;2023-02-21T03:42:00;101250.53;;;10.85;59.27
46756;BME280;32506;52.826;-1.192;2023-02-21T03:44:25;101251.56;;;10.84;59.38
46756;BME280;32506;52.826;-1.192;2023-02-21T03:46:51;101253.41;;;10.83;59.40
46756;BME280;32506;52.826;-1.192;2023-02-21T03:49:16;101252.59;;;10.83;59.09
46756;BME280;32506;52.826;-1.192;2023-02-21T03:51:42;101242.09;;;10.81;59.11
46756;BME280;32506;52.826;-1.192;2023-02-21T03:54:07;101245.78;;;10.80;59.36
46756;BME280;32506;52.826;-1.192;2023-02-21T03:56:33;101244.13;;;10.79;59.43
46756;BME280;32506;52.826;-1.192;2023-02-21T03:58:58;101237.97;;;10.79;59.23
46756;BME280;32506;52.826;-1.192;2023-02-21T04:01:24;101246.81;;;10.79;59.21
46756;BME280;32506;52.826;-1.192;2023-02-21T04:03:49;101241.84;;;10.76;59.15
46756;BME280;32506;52.826;-1.192;2023-02-21T04:06:16;101235.66;;;10.75;59.12
46756;BME280;32506;52.826;-1.192;2023-02-21T04:08:41;101243.69;;;10.75;59.13
46756;BME280;32506;52.826;-1.192;2023-02-21T04:11:07;101242.88;;;10.75;59.31
46756;BME280;32506;52.826;-1.192;2023-02-21T04:13:32;101239.38;;;10.74;59.35
46756;BME280;32506;52.826;-1.192;2023-02-21T04:15:58;101237.72;;;10.73;59.37
46756;BME280;32506;52.826;-1.192;2023-02-21T04:18:23;101234.25;;;10.73;59.41
46756;BME280;32506;52.826;-1.192;2023-02-21T04:20:49;101241.63;;;10.71;59.21
46756;BME280;32506;52.826;-1.192;2023-02-21T04:23:19;101239.16;;;10.69;59.45
46756;BME280;32506;52.826;-1.192;2023-02-21T04:25:45;101235.63;;;10.69;59.31
46756;BME280;32506;52.826;-1.192;2023-02-21T04:28:10;101236.28;;;10.71;59.21
46756;BME280;32506;52.826;-1.192;2023-02-21T04:30:36;101226.81;;;10.68;59.53
46756;BME280;32506;52.826;-1.192;2023-02-21T04:33:02;101226.81;;;10.68;59.51
46756;BME280;32506;52.826;-1.192;2023-02-21T04:35:28;101216.31;;;10.67;59.48
46756;BME280;32506;52.826;-1.192;2023-02-21T04:37:53;101217.31;;;10.66;59.14
46756;BME280;32506;52.826;-1.192;2023-02-21T04:40:18;101217.53;;;10.64;59.51
46756;BME280;32506;52.826;-1.192;2023-02-21T04:42:44;101221.00;;;10.65;59.52
46756;BME280;32506;52.826;-1.192;2023-02-21T04:45:09;101223.06;;;10.63;59.26
46756;BME280;32506;52.826;-1.192;2023-02-21T04:47:35;101214.22;;;10.62;59.22
46756;BME280;32506;52.826;-1.192;2023-02-21T04:50:00;101213.41;;;10.62;59.07
46756;BME280;32506;52.826;-1.192;2023-02-21T04:52:26;101211.75;;;10.61;59.44
46756;BME280;32506;52.826;-1.192;2023-02-21T04:54:52;101213.59;;;10.60;59.40
46756;BME280;32506;52.826;-1.192;2023-02-21T04:57:17;101212.16;;;10.57;59.12
46756;BME280;32506;52.826;-1.192;2023-02-21T04:59:42;101206.78;;;10.57;59.21
46756;BME280;32506;52.826;-1.192;2023-02-21T05:02:08;101209.47;;;10.57;59.57
46756;BME280;32506;52.826;-1.192;2023-02-21T05:04:35;101203.50;;;10.55;59.15
46756;BME280;32506;52.826;-1.192;2023-02-21T05:07:01;101204.53;;;10.54;59.37
46756;BME280;32506;52.826;-1.192;2023-02-21T05:09:26;101210.69;;;10.55;59.30
46756;BME280;32506;52.826;-1.192;2023-02-21T05:11:51;101216.25;;;10.53;59.41
46756;BME280;32506;52.826;-1.192;2023-02-21T05:14:17;101213.56;;;10.53;59.33
46756;BME280;32506;52.826;-1.192;2023-02-21T05:16:43;101219.72;;;10.54;59.29
46756;BME280;32506;52.826;-1.192;2023-02-21T05:19:09;101211.91;;;10.52;59.16
46756;BME280;32506;52.826;-1.192;2023-02-21T05:21:35;101216.63;;;10.50;59.11
46756;BME280;32506;52.826;-1.192;2023-02-21T05:24:05;101210.44;;;10.50;59.31
46756;BME280;32506;52.826;-1.192;2023-02-21T05:26:36;101214.16;;;10.49;59.01
46756;BME280;32506;52.826;-1.192;2023-02-21T05:29:03;101213.31;;;10.48;59.06
46756;BME280;32506;52.826;-1.192;2023-02-21T05:31:29;101212.50;;;10.48;59.01
46756;BME280;32506;52.826;-1.192;2023-02-21T05:33:56;101207.38;;;10.46;58.96
46756;BME280;32506;52.826;-1.192;2023-02-21T05:36:21;101210.03;;;10.46;58.98
46756;BME280;32506;52.826;-1.192;2023-02-21T05:38:51;101205.72;;;10.45;59.12
46756;BME280;32506;52.826;-1.192;2023-02-21T05:41:17;101204.88;;;10.45;59.34
46756;BME280;32506;52.826;-1.192;2023-02-21T05:43:47;101198.91;;;10.43;59.22
46756;BME280;32506;52.826;-1.192;2023-02-21T05:46:23;101201.38;;;10.44;59.22
46756;BME280;32506;52.826;-1.192;2023-02-21T05:48:50;101205.06;;;10.43;59.34
46756;BME280;32506;52.826;-1.192;2023-02-21T05:51:16;101202.59;;;10.41;59.02
46756;BME280;32506;52.826;-1.192;2023-02-21T05:53:41;101204.44;;;10.41;59.00
46756;BME280;32506;52.826;-1.192;2023-02-21T05:56:07;101196.63;;;10.39;59.09
46756;BME280;32506;52.826;-1.192;2023-02-21T05:58:33;101210.00;;;10.39;59.22
46756;BME280;32506;52.826;-1.192;2023-02-21T06:00:58;101207.31;;;10.39;59.38
46756;BME280;32506;52.826;-1.192;2023-02-21T06:03:24;101206.47;;;10.39;59.06
46756;BME280;32506;52.826;-1.192;2023-02-21T06:05:49;101200.53;;;10.37;59.22
46756;BME280;32506;52.826;-1.192;2023-02-21T06:08:14;101198.66;;;10.37;58.95
46756;BME280;32506;52.826;-1.192;2023-02-21T06:10:40;101194.34;;;10.36;59.42
46756;BME280;32506;52.826;-1.192;2023-02-21T06:13:05;101196.19;;;10.36;59.26
46756;BME280;32506;52.826;-1.192;2023-02-21T06:15:31;101194.34;;;10.36;59.41
46756;BME280;32506;52.826;-1.192;2023-02-21T06:17:56;101188.34;;;10.34;59.19
46756;BME280;32506;52.826;-1.192;2023-02-21T06:20:22;101184.00;;;10.33;59.29
46756;BME280;32506;52.826;-1.192;2023-02-21T06:22:47;101188.53;;;10.33;59.28
46756;BME280;32506;52.826;-1.192;2023-02-21T06:25:14;101193.91;;;10.33;59.30
46756;BME280;32506;52.826;-1.192;2023-02-21T06:27:39;101188.53;;;10.33;59.27
46756;BME280;32506;52.826;-1.192;2023-02-21T06:30:05;101192.22;;;10.32;59.17
46756;BME280;32506;52.826;-1.192;2023-02-21T06:32:31;101186.88;;;10.32;59.36
46756;BME280;32506;52.826;-1.192;2023-02-21T06:34:56;101187.09;;;10.30;59.13
46756;BME280;32506;52.826;-1.192;2023-02-21T06:37:22;101192.44;;;10.30;59.16
46756;BME280;32506;52.826;-1.192;2023-02-21T06:39:47;101188.09;;;10.29;59.27
46756;BME280;32506;52.826;-1.192;2023-02-21T06:42:14;101188.09;;;10.29;59.16
46756;BME280;32506;52.826;-1.192;2023-02-21T06:44:44;101195.47;;;10.27;59.34
46756;BME280;32506;52.826;-1.192;2023-02-21T06:47:10;101192.00;;;10.27;59.13
46756;BME280;32506;52.826;-1.192;2023-02-21T06:49:35;101183.97;;;10.27;59.37
46756;BME280;32506;52.826;-1.192;2023-02-21T06:52:01;101188.50;;;10.26;59.47
46756;BME280;32506;52.826;-1.192;2023-02-21T06:54:26;101189.53;;;10.25;59.22
46756;BME280;32506;52.826;-1.192;2023-02-21T06:56:54;101189.53;;;10.25;59.31
46756;BME280;32506;52.826;-1.192;2023-02-21T06:59:20;101182.53;;;10.24;59.27
46756;BME280;32506;52.826;-1.192;2023-02-21T07:01:45;101181.72;;;10.23;59.43
46756;BME280;32506;52.826;-1.192;2023-02-21T07:04:11;101182.53;;;10.24;59.20
46756;BME280;32506;52.826;-1.192;2023-02-21T07:06:36;101174.69;;;10.22;59.23
46756;BME280;32506;52.826;-1.192;2023-02-21T07:09:02;101182.72;;;10.22;59.25
46756;BME280;32506;52.826;-1.192;2023-02-21T07:11:27;101183.72;;;10.21;59.42
46756;BME280;32506;52.826;-1.192;2023-02-21T07:13:55;101186.41;;;10.21;59.40
46756;BME280;32506;52.826;-1.192;2023-02-21T07:16:24;101181.25;;;10.20;59.41
46756;BME280;32506;52.826;-1.192;2023-02-21T07:18:50;101179.41;;;10.20;59.29
46756;BME280;32506;52.826;-1.192;2023-02-21T07:21:16;101179.59;;;10.19;59.23
46756;BME280;32506;52.826;-1.192;2023-02-21T07:23:43;101170.78;;;10.18;59.23
46756;BME280;32506;52.826;-1.192;2023-02-21T07:26:09;101177.78;;;10.19;59.23
46756;BME280;32506;52.826;-1.192;2023-02-21T07:28:35;101175.09;;;10.19;59.50
46756;BME280;32506;52.826;-1.192;2023-02-21T07:31:00;101167.25;;;10.18;59.70
46756;BME280;32506;52.826;-1.192;2023-02-21T07:33:26;101169.13;;;10.17;59.25
46756;BME280;32506;52.826;-1.192;2023-02-21T07:35:51;101174.47;;;10.17;59.27
46756;BME280;32506;52.826;-1.192;2023-02-21T07:38:26;101171.78;;;10.17;59.51
46756;BME280;32506;52.826;-1.192;2023-02-21T07:40:56;101176.31;;;10.17;59.35
46756;BME280;32506;52.826;-1.192;2023-02-21T07:43:23;101171.78;;;10.17;59.16
46756;BME280;32506;52.826;-1.192;2023-02-21T07:45:49;101170.97;;;10.17;59.54
46756;BME280;32506;52.826;-1.192;2023-02-21T07:48:14;101169.13;;;10.17;59.43
46756;BME280;32506;52.826;-1.192;2023-02-21T07:50:41;101172.81;;;10.16;59.37
46756;BME280;32506;52.826;-1.192;2023-02-21T07:53:07;101172.81;;;10.16;59.63
46756;BME280;32506;52.826;-1.192;2023-02-21T07:55:33;101173.66;;;10.17;59.51
46756;BME280;32506;52.826;-1.192;2023-02-21T07:57:58;101174.47;;;10.17;59.40
46756;BME280;32506;52.826;-1.192;2023-02-21T08:00:24;101167.25;;;10.18;59.60
46756;BME280;32506;52.826;-1.192;2023-02-21T08:02:50;101175.28;;;10.18;59.33
46756;BME280;32506;52.826;-1.192;2023-02-21T08:05:16;101173.66;;;10.17;59.65
46756;BME280;32506;52.826;-1.192;2023-02-21T08:07:43;101169.13;;;10.17;59.64
46756;BME280;32506;52.826;-1.192;2023-02-21T08:10:09;101175.28;;;10.18;59.81
46756;BME280;32506;52.826;-1.192;2023-02-21T08:12:34;101175.09;;;10.19;59.72
46756;BME280;32506;52.826;-1.192;2023-02-21T08:15:00;101168.91;;;10.19;59.61
46756;BME280;32506;52.826;-1.192;2023-02-21T08:17:25;101167.09;;;10.19;59.49
46756;BME280;32506;52.826;-1.192;2023-02-21T08:19:51;101174.06;;;10.20;59.60
46756;BME280;32506;52.826;-1.192;2023-02-21T08:22:17;101174.06;;;10.20;59.75
46756;BME280;32506;52.826;-1.192;2023-02-21T08:24:42;101166.88;;;10.21;59.49
46756;BME280;32506;52.826;-1.192;2023-02-21T08:27:08;101173.03;;;10.21;59.41
46756;BME280;32506;52.826;-1.192;2023-02-21T08:29:33;101171.22;;;10.22;59.58
46756;BME280;32506;52.826;-1.192;2023-02-21T08:31:59;101172.03;;;10.22;59.43
46756;BME280;32506;52.826;-1.192;2023-02-21T08:34:24;101176.38;;;10.23;59.44
46756;BME280;32506;52.826;-1.192;2023-02-21T08:36:50;101176.38;;;10.23;59.45
46756;BME280;32506;52.826;-1.192;2023-02-21T08:39:15;101173.28;;;10.27;59.41
46756;BME280;32506;52.826;-1.192;2023-02-21T08:41:43;101168.75;;;10.27;59.16
46756;BME280;32506;52.826;-1.192;2023-02-21T08:44:10;101176.59;;;10.29;59.08
46756;BME280;32506;52.826;-1.192;2023-02-21T08:46:36;101170.22;;;10.30;59.28
46756;BME280;32506;52.826;-1.192;2023-02-21T08:49:03;101166.53;;;10.31;59.42
46756;BME280;32506;52.826;-1.192;2023-02-21T08:51:31;101173.31;;;10.33;59.42
46756;BME280;32506;52.826;-1.192;2023-02-21T08:53:57;101178.50;;;10.35;59.26
46756;BME280;32506;52.826;-1.192;2023-02-21T08:56:23;101176.47;;;10.37;59.18
46756;BME280;32506;52.826;-1.192;2023-02-21T08:58:50;101174.63;;;10.37;59.23
46756;BME280;32506;52.826;-1.192;2023-02-21T09:01:16;101171.75;;;10.39;59.37
46756;BME280;32506;52.826;-1.192;2023-02-21T09:03:41;101174.22;;;10.40;59.54
46756;BME280;32506;52.826;-1.192;2023-02-21T09:06:07;101170.53;;;10.41;59.62
46756;BME280;32506;52.826;-1.192;2023-02-21T09:08:33;101173.00;;;10.43;59.40
46756;BME280;32506;52.826;-1.192;2023-02-21T09:11:01;101170.13;;;10.45;59.48
46756;BME280;32506;52.826;-1.192;2023-02-21T09:13:28;101169.94;;;10.46;59.43
46756;BME280;32506;52.826;-1.192;2023-02-21T09:15:55;101171.41;;;10.49;59.65
46756;BME280;32506;52.826;-1.192;2023-02-21T09:18:21;101179.22;;;10.50;59.61
46756;BME280;32506;52.826;-1.192;2023-02-21T09:20:47;101171.81;;;10.52;59.37
46756;BME280;32506;52.826;-1.192;2023-02-21T09:23:16;101171.63;;;10.54;59.45
46756;BME280;32506;52.826;-1.192;2023-02-21T09:25:44;101172.25;;;10.56;59.45
46756;BME280;32506;52.826;-1.192;2023-02-21T09:28:10;101169.38;;;10.57;59.45
46756;BME280;32506;52.826;-1.192;2023-02-21T09:30:35;101173.50;;;10.60;59.71
46756;BME280;32506;52.826;-1.192;2023-02-21T09:33:01;101173.31;;;10.62;59.59
46756;BME280;32506;52.826;-1.192;2023-02-21T09:35:26;101169.63;;;10.63;59.84
46756;BME280;32506;52.826;-1.192;2023-02-21T09:37:55;101172.72;;;10.66;59.51
46756;BME280;32506;52.826;-1.192;2023-02-21T09:43:05;101166.13;;;10.69;59.80
46756;BME280;32506;52.826;-1.192;2023-02-21T09:45:35;101168.63;;;10.70;59.92
46756;BME280;32506;52.826;-1.192;2023-02-21T09:48:12;101165.53;;;10.73;59.65
46756;BME280;32506;52.826;-1.192;2023-02-21T09:50:47;101163.69;;;10.74;59.60
46756;BME280;32506;52.826;-1.192;2023-02-21T09:53:21;101163.47;;;10.75;59.68
46756;BME280;32506;52.826;-1.192;2023-02-21T09:55:50;101160.44;;;10.79;59.92
46756;BME280;32506;52.826;-1.192;2023-02-21T09:58:19;101162.09;;;10.80;59.73
46756;BME280;32506;52.826;-1.192;2023-02-21T10:00:45;101162.50;;;10.83;59.83
46756;BME280;32506;52.826;-1.192;2023-02-21T10:16:47;101161.50;;;10.98;59.99
46756;BME280;32506;52.826;-1.192;2023-02-21T10:19:29;101161.94;;;11.01;60.04
46756;BME280;32506;52.826;-1.192;2023-02-21T10:21:55;101156.19;;;11.04;60.16
46756;BME280;32506;52.826;-1.192;2023-02-21T10:24:25;101159.47;;;11.06;60.16
46756;BME280;32506;52.826;-1.192;2023-02-21T10:26:58;101157.22;;;11.10;60.18
46756;BME280;32506;52.826;-1.192;2023-02-21T10:29:36;101162.16;;;11.13;60.01
46756;BME280;32506;52.826;-1.192;2023-02-21T10:32:03;101160.94;;;11.16;60.15
46756;BME280;32506;52.826;-1.192;2023-02-21T10:34:31;101155.19;;;11.19;60.02
46756;BME280;32506;52.826;-1.192;2023-02-21T10:39:55;101153.13;;;11.28;60.19
46756;BME280;32506;52.826;-1.192;2023-02-21T10:42:48;101156.03;;;11.33;60.03
46756;BME280;32506;52.826;-1.192;2023-02-21T10:45:17;101152.34;;;11.34;60.45
46756;BME280;32506;52.826;-1.192;2023-02-21T10:48:03;101153.38;;;11.39;60.39
46756;BME280;32506;52.826;-1.192;2023-02-21T10:50:41;101157.50;;;11.42;60.38
46756;BME280;32506;52.826;-1.192;2023-02-21T10:53:08;101153.78;;;11.43;60.51
46756;BME280;32506;52.826;-1.192;2023-02-21T10:59:00;101157.28;;;11.50;60.40
46756;BME280;32506;52.826;-1.192;2023-02-21T11:01:43;101147.00;;;11.54;60.15
46756;BME280;32506;52.826;-1.192;2023-02-21T11:07:08;101145.16;;;11.61;60.42
46756;BME280;32506;52.826;-1.192;2023-02-21T11:09:46;101140.41;;;11.63;60.33
46756;BME280;32506;52.826;-1.192;2023-02-21T11:15:04;101134.84;;;11.71;60.42
46756;BME280;32506;52.826;-1.192;2023-02-21T11:17:30;101140.81;;;11.73;60.32
46756;BME280;32506;52.826;-1.192;2023-02-21T11:22:24;101141.44;;;11.82;60.25
46756;BME280;32506;52.826;-1.192;2023-02-21T11:24:54;101133.81;;;11.86;60.52
46756;BME280;32506;52.826;-1.192;2023-02-21T11:27:21;101129.47;;;11.91;60.43
46756;BME280;32506;52.826;-1.192;2023-02-21T11:29:49;101125.38;;;11.96;60.40
46756;BME280;32506;52.826;-1.192;2023-02-21T11:32:25;101126.41;;;12.01;60.48
46756;BME280;32506;52.826;-1.192;2023-02-21T11:35:00;101123.09;;;12.06;60.07
46756;BME280;32506;52.826;-1.192;2023-02-21T11:37:26;101120.81;;;12.09;60.27
46756;BME280;32506;52.826;-1.192;2023-02-21T11:39:53;101115.06;;;12.13;60.23
46756;BME280;32506;52.826;-1.192;2023-02-21T11:42:29;101117.72;;;12.19;60.00
46756;BME280;32506;52.826;-1.192;2023-02-21T11:45:27;101116.25;;;12.23;60.36
46756;BME280;32506;52.826;-1.192;2023-02-21T11:48:03;101113.16;;;12.27;60.11
46756;BME280;32506;52.826;-1.192;2023-02-21T11:50:35;101110.88;;;12.30;60.33
46756;BME280;32506;52.826;-1.192;2023-02-21T11:55:59;101095.38;;;12.39;60.40
46756;BME280;32506;52.826;-1.192;2023-02-21T11:58:50;101087.31;;;12.46;60.27
46756;BME280;32506;52.826;-1.192;2023-02-21T12:01:26;101091.41;;;12.48;60.07
46756;BME280;32506;52.826;-1.192;2023-02-21T12:06:56;101074.63;;;12.66;60.44
46756;BME280;32506;52.826;-1.192;2023-02-21T12:18:04;101064.78;;;13.17;60.83
46756;BME280;32506;52.826;-1.192;2023-02-21T12:23:26;101056.25;;;13.59;61.75
46756;BME280;32506;52.826;-1.192;2023-02-21T12:47:54;101008.09;;;15.40;60.84
46756;BME280;32506;52.826;-1.192;2023-02-21T12:50:24;101003.25;;;15.66;60.29
46756;BME280;32506;52.826;-1.192;2023-02-21T12:53:05;101001.25;;;15.97;60.26
46756;BME280;32506;52.826;-1.192;2023-02-21T12:55:58;101000.47;;;16.25;60.34
46756;BME280;32506;52.826;-1.192;2023-02-21T12:58:35;100995.06;;;16.54;60.11
46756;BME280;32506;52.826;-1.192;2023-02-21T13:01:13;100995.03;;;16.83;59.68
46756;BME280;32506;52.826;-1.192;2023-02-21T13:14:18;100966.63;;;17.70;57.26
46756;BME280;32506;52.826;-1.192;2023-02-21T13:16:45;100970.25;;;17.81;56.83
46756;BME280;32506;52.826;-1.192;2023-02-21T13:19:12;100972.78;;;17.88;56.59
46756;BME280;32506;52.826;-1.192;2023-02-21T13:25:12;100965.50;;;18.10;56.08
46756;BME280;32506;52.826;-1.192;2023-02-21T13:32:59;100951.81;;;19.78;52.97
46756;BME280;32506;52.826;-1.192;2023-02-21T13:37:57;100945.25;;;20.94;51.64
46756;BME280;32506;52.826;-1.192;2023-02-21T13:40:41;100936.00;;;21.05;51.31
46756;BME280;32506;52.826;-1.192;2023-02-21T13:43:27;100938.19;;;21.03;51.50
46756;BME280;32506;52.826;-1.192;2023-02-21T13:45:54;100934.66;;;20.92;51.83
46756;BME280;32506;52.826;-1.192;2023-02-21T13:48:39;100930.03;;;20.83;52.18
46756;BME280;32506;52.826;-1.192;2023-02-21T13:51:05;100924.09;;;20.75;52.21
46756;BME280;32506;52.826;-1.192;2023-02-21T13:53:32;100926.75;;;20.65;52.00
46756;BME280;32506;52.826;-1.192;2023-02-21T13:56:18;100921.34;;;20.50;52.20
46756;BME280;32506;52.826;-1.192;2023-02-21T13:58:46;100917.53;;;20.35;52.11
46756;BME280;32506;52.826;-1.192;2023-02-21T14:03:38;100908.03;;;20.17;51.90
46756;BME280;32506;52.826;-1.192;2023-02-21T14:08:42;100900.16;;;20.31;51.27
46756;BME280;32506;52.826;-1.192;2023-02-21T14:11:19;100898.53;;;20.25;51.25
46756;BME280;32506;52.826;-1.192;2023-02-21T14:19:09;100886.03;;;19.93;50.19
46756;BME280;32506;52.826;-1.192;2023-02-21T14:22:03;100893.56;;;19.86;49.84
46756;BME280;32506;52.826;-1.192;2023-02-21T14:24:32;100882.50;;;19.98;50.18
46756;BME280;32506;52.826;-1.192;2023-02-21T14:32:37;100875.19;;;20.55;47.63
46756;BME280;32506;52.826;-1.192;2023-02-21T14:35:32;100864.91;;;20.41;47.77
46756;BME280;32506;52.826;-1.192;2023-02-21T14:38:03;100856.22;;;20.24;48.51
46756;BME280;32506;52.826;-1.192;2023-02-21T14:59:48;100846.78;;;19.37;48.44
46756;BME280;32506;52.826;-1.192;2023-02-21T15:05:22;100836.97;;;19.21;48.90
46756;BME280;32506;52.826;-1.192;2023-02-21T15:08:08;100835.38;;;19.30;48.70
46756;BME280;32506;52.826;-1.192;2023-02-21T15:10:42;100840.53;;;19.37;49.02
46756;BME280;32506;52.826;-1.192;2023-02-21T15:13:34;100832.19;;;19.49;48.84
46756;BME280;32506;52.826;-1.192;2023-02-21T15:16:05;100824.84;;;19.44;49.09
46756;BME280;32506;52.826;-1.192;2023-02-21T15:18:38;100823.47;;;19.41;49.17
46756;BME280;32506;52.826;-1.192;2023-02-21T15:21:17;100815.06;;;19.43;48.98
46756;BME280;32506;52.826;-1.192;2023-02-21T15:23:47;100821.31;;;19.38;49.33
46756;BME280;32506;52.826;-1.192;2023-02-21T15:26:26;100820.75;;;19.31;49.38
46756;BME280;32506;52.826;-1.192;2023-02-21T15:29:11;100810.69;;;19.26;48.95
46756;BME280;32506;52.826;-1.192;2023-02-21T15:31:55;100814.19;;;19.17;48.94
46756;BME280;32506;52.826;-1.192;2023-02-21T15:34:46;100811.69;;;19.05;49.27
46756;BME280;32506;52.826;-1.192;2023-02-21T15:39:41;100807.06;;;18.95;49.50
46756;BME280;32506;52.826;-1.192;2023-02-21T15:42:08;100795.13;;;18.91;49.47
46756;BME280;32506;52.826;-1.192;2023-02-21T15:47:07;100793.69;;;18.83;49.53
46756;BME280;32506;52.826;-1.192;2023-02-21T15:49:42;100792.03;;;18.77;49.49
46756;BME280;32506;52.826;-1.192;2023-02-21T16:00:30;100799.06;;;18.35;50.14
46756;BME280;32506;52.826;-1.192;2023-02-21T16:03:25;100790.63;;;18.26;49.73